createdAt,value
2024-03-16T00:00:13.447Z,0.40
2024-03-16T00:02:47.461Z,0.40
2024-03-16T00:05:18.553Z,0.40
2024-03-16T00:07:48.911Z,0.40
2024-03-16T00:10:17.389Z,0.40
2024-03-16T00:12:45.813Z,0.40
2024-03-16T00:15:14.178Z,0.40
2024-03-16T00:17:43.082Z,0.40
2024-03-16T00:20:12.589Z,0.40
2024-03-16T00:22:49.259Z,0.40
2024-03-16T00:25:19.140Z,0.40
2024-03-16T00:27:49.916Z,0.40
2024-03-16T00:30:18.430Z,0.40
2024-03-16T00:32:48.594Z,0.40
2024-03-16T00:35:17.012Z,0.40
2024-03-16T00:37:46.526Z,0.40
2024-03-16T00:40:16.876Z,0.40
2024-03-16T00:42:46.323Z,0.30
2024-03-16T00:45:14.965Z,0.40
2024-03-16T00:47:44.151Z,0.40
2024-03-16T00:50:12.643Z,0.40
2024-03-16T00:52:41.060Z,0.40
2024-03-16T00:55:10.671Z,0.40
2024-03-16T00:57:39.245Z,0.40
2024-03-16T01:00:10.209Z,0.40
2024-03-16T01:02:38.731Z,0.40
2024-03-16T01:05:07.324Z,0.40
2024-03-16T01:07:35.712Z,0.40
2024-03-16T01:10:04.444Z,0.40
2024-03-16T01:12:35.076Z,0.40
2024-03-16T01:15:04.304Z,0.40
2024-03-16T01:17:32.767Z,0.40
2024-03-16T01:20:01.604Z,0.40
2024-03-16T01:22:30.090Z,0.40
2024-03-16T01:24:58.785Z,0.40
2024-03-16T01:27:27.273Z,0.40
2024-03-16T01:29:55.715Z,0.40
2024-03-16T01:32:24.206Z,0.40
2024-03-16T01:34:52.677Z,0.40
2024-03-16T01:37:21.307Z,0.40
2024-03-16T01:39:50.968Z,0.40
2024-03-16T01:42:19.392Z,0.40
2024-03-16T01:44:52.049Z,0.40
2024-03-16T01:47:20.494Z,0.40
2024-03-16T01:49:48.852Z,0.40
2024-03-16T01:52:17.323Z,0.40
2024-03-16T01:54:45.901Z,0.40
2024-03-16T01:57:14.360Z,0.40
2024-03-16T01:59:42.947Z,0.40
2024-03-16T02:02:12.667Z,0.40
2024-03-16T02:04:49.922Z,0.40
2024-03-16T02:07:21.145Z,0.40
2024-03-16T02:09:49.581Z,0.40
2024-03-16T02:12:18.095Z,0.40
2024-03-16T02:14:46.535Z,0.37
2024-03-16T02:17:14.917Z,0.40
2024-03-16T02:19:43.268Z,0.40
2024-03-16T02:22:11.826Z,0.40
2024-03-16T02:24:40.506Z,0.40
2024-03-16T02:27:09.074Z,0.40
2024-03-16T02:29:38.147Z,0.40
2024-03-16T02:32:07.566Z,0.40
2024-03-16T02:34:37.260Z,0.40
2024-03-16T02:37:05.840Z,0.40
2024-03-16T02:39:34.593Z,0.40
2024-03-16T02:42:03.708Z,0.73
2024-03-16T02:44:32.086Z,0.40
2024-03-16T02:47:00.486Z,0.40
2024-03-16T02:49:29.008Z,0.40
2024-03-16T02:51:58.705Z,0.40
2024-03-16T02:54:27.142Z,0.40
2024-03-16T02:56:55.628Z,0.40
2024-03-16T02:59:24.140Z,0.40
2024-03-16T03:01:52.588Z,0.40
2024-03-16T03:04:21.046Z,0.40
2024-03-16T03:06:49.518Z,0.40
2024-03-16T03:09:19.129Z,0.40
2024-03-16T03:11:47.562Z,0.40
2024-03-16T03:14:18.285Z,0.33
2024-03-16T03:16:46.876Z,0.40
2024-03-16T03:19:15.276Z,0.40
2024-03-16T03:21:43.732Z,0.40
2024-03-16T03:24:15.182Z,0.40
2024-03-16T03:26:43.565Z,0.40
2024-03-16T03:29:12.880Z,0.40
2024-03-16T03:31:41.278Z,0.40
2024-03-16T03:34:10.191Z,0.40
2024-03-16T03:36:45.189Z,0.40
2024-03-16T03:39:16.811Z,3.17
2024-03-16T03:41:45.297Z,0.40
2024-03-16T03:44:25.144Z,0.40
2024-03-16T03:46:55.978Z,0.40
2024-03-16T03:49:33.162Z,0.40
2024-03-16T03:52:05.446Z,0.40
2024-03-16T03:54:35.812Z,0.40
2024-03-16T03:57:05.181Z,0.40
2024-03-16T03:59:33.835Z,0.40
2024-03-16T04:02:02.372Z,0.30
2024-03-16T04:04:31.800Z,0.40
2024-03-16T04:07:00.338Z,0.40
2024-03-16T04:09:28.777Z,0.40
2024-03-16T04:11:57.212Z,0.40
2024-03-16T04:14:25.578Z,0.43
2024-03-16T04:16:53.923Z,0.40
2024-03-16T04:19:22.537Z,0.40
2024-03-16T04:21:54.763Z,0.40
2024-03-16T04:24:23.215Z,0.40
2024-03-16T04:26:51.581Z,0.40
2024-03-16T04:29:19.942Z,0.40
2024-03-16T04:31:48.262Z,0.40
2024-03-16T04:34:16.709Z,0.40
2024-03-16T04:36:45.134Z,0.40
2024-03-16T04:39:13.668Z,5.43
2024-03-16T04:41:42.015Z,5.20
2024-03-16T04:44:10.390Z,4.60
2024-03-16T04:46:38.733Z,4.67
2024-03-16T04:49:07.247Z,5.10
2024-03-16T04:51:35.695Z,2.73
2024-03-16T04:54:04.106Z,0.40
2024-03-16T04:56:32.530Z,0.40
2024-03-16T04:59:00.920Z,0.40
2024-03-16T05:01:29.351Z,0.40
2024-03-16T05:04:05.283Z,0.40
2024-03-16T05:06:34.754Z,0.40
2024-03-16T05:09:06.455Z,0.40
2024-03-16T05:11:34.943Z,0.40
2024-03-16T05:14:03.776Z,0.40
2024-03-16T05:16:32.136Z,0.40
2024-03-16T05:19:02.912Z,0.40
2024-03-16T05:21:33.344Z,0.40
2024-03-16T05:24:02.150Z,0.37
2024-03-16T05:26:32.715Z,0.40
2024-03-16T05:29:01.104Z,0.40
2024-03-16T05:31:29.467Z,0.40
2024-03-16T05:33:57.871Z,0.40
2024-03-16T05:36:26.425Z,0.40
2024-03-16T05:38:55.166Z,0.40
2024-03-16T05:41:23.862Z,0.40
2024-03-16T05:43:54.312Z,0.40
2024-03-16T05:46:23.160Z,0.40
2024-03-16T05:48:51.571Z,0.40
2024-03-16T05:51:19.970Z,0.40
2024-03-16T05:53:48.345Z,0.40
2024-03-16T05:56:17.013Z,0.40
2024-03-16T05:58:44.494Z,0.40
2024-03-16T06:01:12.964Z,0.40
2024-03-16T06:03:41.432Z,0.40
2024-03-16T06:06:09.907Z,0.40
2024-03-16T06:08:38.396Z,0.40
2024-03-16T06:11:07.007Z,0.40
2024-03-16T06:13:35.460Z,0.40
2024-03-16T06:16:04.702Z,0.40
2024-03-16T06:18:33.102Z,0.40
2024-03-16T06:21:01.527Z,0.40
2024-03-16T06:23:30.631Z,1.93
2024-03-16T06:26:05.041Z,0.40
2024-03-16T06:28:37.153Z,0.40
2024-03-16T06:31:11.757Z,0.40
2024-03-16T06:33:46.507Z,0.40
2024-03-16T06:36:15.014Z,0.40
2024-03-16T06:38:43.704Z,0.40
2024-03-16T06:41:12.082Z,0.40
2024-03-16T06:43:40.463Z,0.40
2024-03-16T06:46:12.859Z,0.40
2024-03-16T06:48:41.677Z,0.40
2024-03-16T06:51:10.042Z,0.40
2024-03-16T06:53:38.824Z,0.40
2024-03-16T06:56:08.443Z,0.33
2024-03-16T06:58:36.927Z,0.40
2024-03-16T07:01:08.240Z,0.40
2024-03-16T07:03:37.285Z,0.40
2024-03-16T07:06:07.760Z,0.40
2024-03-16T07:08:36.196Z,0.40
2024-03-16T07:11:04.754Z,0.40
2024-03-16T07:13:33.687Z,0.40
2024-03-16T07:16:02.097Z,0.40
2024-03-16T07:18:30.526Z,0.40
2024-03-16T07:21:00.321Z,0.40
2024-03-16T07:23:30.828Z,0.40
2024-03-16T07:25:59.684Z,0.40
2024-03-16T07:28:28.109Z,0.93
2024-03-16T07:30:58.034Z,0.40
2024-03-16T07:33:26.426Z,4.63
2024-03-16T07:35:54.874Z,4.00
2024-03-16T07:38:22.326Z,4.70
2024-03-16T07:40:50.756Z,3.97
2024-03-16T07:43:19.189Z,3.80
2024-03-16T07:45:55.098Z,4.80
2024-03-16T07:48:26.884Z,3.93
2024-03-16T07:51:01.154Z,3.57
2024-03-16T07:53:32.267Z,4.53
2024-03-16T07:56:00.668Z,5.20
2024-03-16T07:58:29.046Z,4.60
2024-03-16T08:00:57.531Z,3.70
2024-03-16T08:03:25.929Z,4.30
2024-03-16T08:05:54.780Z,4.03
2024-03-16T08:08:24.386Z,4.90
2024-03-16T08:10:55.814Z,4.60
2024-03-16T08:13:24.548Z,2.40
2024-03-16T08:15:54.628Z,3.40
2024-03-16T08:18:23.208Z,2.90
2024-03-16T08:20:51.814Z,3.33
2024-03-16T08:23:20.321Z,3.57
2024-03-16T08:25:49.801Z,2.27
2024-03-16T08:28:18.227Z,4.60
2024-03-16T08:30:46.702Z,5.67
2024-03-16T08:33:17.220Z,5.03
2024-03-16T08:35:46.767Z,4.50
2024-03-16T08:38:16.600Z,3.57
2024-03-16T08:40:45.109Z,3.63
2024-03-16T08:43:13.857Z,4.70
2024-03-16T08:45:42.579Z,3.77
2024-03-16T08:48:12.141Z,4.17
2024-03-16T08:50:40.746Z,4.33
2024-03-16T08:53:09.162Z,4.53
2024-03-16T08:55:37.613Z,4.20
2024-03-16T08:58:06.213Z,3.70
2024-03-16T09:00:34.856Z,4.23
2024-03-16T09:03:08.136Z,4.27
2024-03-16T09:05:37.489Z,3.83
2024-03-16T09:08:06.684Z,3.60
2024-03-16T09:10:37.479Z,3.37
2024-03-16T09:13:06.046Z,3.80
2024-03-16T09:15:35.048Z,4.57
2024-03-16T09:18:05.188Z,3.60
2024-03-16T09:20:33.699Z,4.20
2024-03-16T09:23:02.256Z,3.23
2024-03-16T09:25:31.479Z,3.00
2024-03-16T09:27:59.942Z,3.00
2024-03-16T09:30:28.450Z,2.97
2024-03-16T09:32:57.085Z,2.30
2024-03-16T09:35:27.424Z,2.43
2024-03-16T09:37:55.789Z,3.17
2024-03-16T09:40:24.440Z,2.60
